logo
App data

Dungeon Lurk II - Leona

A Story Driven Action Puzzle Adventure Game. Take your time and explore the environment for clues to puzzles. Zoom in to detailed areas to find secrets that allow you to progress in the game. An adventure full of mystery, obstacles, enemies, stories, battles, puzzles, fun and comedy.
Store | Hub | SteamDB | Site
Developer: Keys of Nine Entertainment Publisher: Keys of Nine Entertainment
Genre: Adventure, Casual, Indie
Languages: English, French, Italian, German, Spanish - Spain, Arabic, Bulgarian, Czech, Danish, Dutch, Finnish, Greek, Hungarian, Japanese, Korean, Norwegian, Polish, Portuguese, Portuguese - Brazil, Romanian, Russian, Simplified Chinese, Swedish, Thai, Traditional Chinese, Turkish, Ukrainian
Tags: Adventure (23), Indie (23), Casual (22)
Category: Single-player, Partial Controller Support
Release date: Oct 27, 2014
Price: $9.99
Owners: 0 .. 20,000
Followers: 235

Steam Spy is still in beta, so expect major bugs.

Owners data:

Access restricted.

This feature is only available to users with special access rights. Sorry.

If you want to proceed, you need to register or log in first and then back Steam Spy on Patreon. Look for Indie or Pro pledge.

Don't forget to use the same email as on Steam Spy!

Audience in 2 weeks:

Access restricted.

This feature is only available to users with special access rights. Sorry.

If you want to proceed, you need to register or log in first and then back Steam Spy on Patreon. Look for Indie or Pro pledge.

Don't forget to use the same email as on Steam Spy!

Peak daily concurrent players:

CCU data courtesy of SteamDB. Used with permission.

Hourly concurrent players:

YouTube:

The views data is based on top 50 videos uploaded last week. Actual number of views might be more than the number shown.

The displayed number of videos uploaded yesterday is limited to 50, so if there were more videos uploaded, the number will still show 50.

If the game has commonly used word as its name (like "FEAR" or "Volume") its number of Youtube views might be wrong.

Games similar to this one:

# Game Release date
Price
Score rank
(Userscore / Metascore)
Owners
Players
Playtime (Median)
1 Buried: An Interactive Story Jan 22, 2016 $2.9995% (96%)0 .. 20,0000%00:00 (00:00)
2 Highrise Heroes: Word Challenge Jan 8, 2016 $4.9993% (95%)0 .. 20,0000%00:00 (00:00)
3 Rusty Lake Hotel Jan 29, 2016 $1.9987% (93%/65%)50,000 .. 100,0001.63%14:27 (09:38)
4 Dark Echo May 11, 2015 $2.9983% (92%)20,000 .. 50,0000%00:00 (00:00)
5 FLAMBERGE ||| SIMULTANEOUS TACTICS Mar 25, 2015 $9.9980% (91%)0 .. 20,0000%00:00 (00:00)
6 199X Mar 10, 2015 $1.9977% (90%)0 .. 20,0000%00:00 (00:00)
7 Stories Untold Feb 27, 2017 $9.9968% (87%/81%)100,000 .. 200,0000%00:00 (00:00)
8 School of Talent: SUZU-ROUTE Feb 23, 2017 $8.9968% (87%)0 .. 20,0000%00:00 (00:00)
9 Mr. Pumpkin Adventure Jul 8, 2016 $3.9968% (87%)0 .. 20,0000%00:00 (00:00)
10 Night Shift Feb 23, 2015 $4.99N/A (N/A)0 .. 20,0000%00:00 (00:00)
11 Serafina's Crown Mar 15, 2016 $7.99N/A (N/A)20,000 .. 50,0000%00:00 (00:00)
12 Breathing Fear Oct 7, 2016 $0.555% (82%)20,000 .. 50,0001.33%07:50 (02:36)
13 Reflection of Mine Feb 24, 2017 $7.9955% (82%)0 .. 20,0001.43%03:00 (01:00)
14 The Narrator Is a DICK Jun 14, 2016 $4.9951% (80%)0 .. 20,0000%00:00 (00:00)
15 Dead Secret Mar 28, 2016 $14.9951% (80%)20,000 .. 50,0000%00:00 (00:00)
16 East Tower - Takashi May 27, 2015 $5.99N/A (N/A)0 .. 20,0000%00:00 (00:00)
17 The Rivers of Alice - Extended Version Nov 16, 2015 $7.9947% (78%)0 .. 20,0000%00:00 (00:00)
18 Shutter Apr 2, 2015 $1.9945% (77%)20,000 .. 50,0000%00:00 (00:00)
19 samurai_jazz Jan 27, 2015 $0.9939% (74%)0 .. 20,0000%00:00 (00:00)
20 Shadow Puppeteer Sep 29, 2014 $3.74N/A (N/A/57%)50,000 .. 100,0000%00:00 (00:00)
21 Blueberry Garden Jun 2009 $4.9939% (74%/68%)20,000 .. 50,0000%00:00 (00:00)
22 Scrap Garden May 6, 2016 $9.9936% (72%/58%)100,000 .. 200,0000%00:00 (00:00)
23 A Detective's Novel Jul 28, 2016 $0.4936% (72%)200,000 .. 500,0000.69%37:07 (114:29)
24 Unearthed Inc: The Lost Temple Dec 16, 2016 N/AN/A (N/A)0 .. 20,0000%00:00 (00:00)
25 City Quest Aug 20, 2015 $1.99N/A (N/A)0 .. 20,0002.63%08:12 (02:44)
26 Planetship Sep 24, 2015 $8.99N/A (N/A)0 .. 20,0000%00:00 (00:00)
27 You Deserve Aug 19, 2016 $0.9931% (69%)20,000 .. 50,0000%00:00 (00:00)
28 Draw Slasher Oct 13, 2016 $4.9929% (68%)0 .. 20,0001.79%09:55 (03:18)
29 Pneuma: Breath of Life Feb 27, 2015 $19.9929% (68%/63%)0 .. 20,0000%00:00 (00:00)
30 The Adventures of Fatman Oct 1, 2015 $1.99N/A (N/A)0 .. 20,0000%00:00 (00:00)
31 Hamilton's Great Adventure May 31, 2011 $9.9928% (67%/77%)100,000 .. 200,0000.57%00:01 (00:00)
32 Enola Sep 18, 2014 $14.9925% (65%)20,000 .. 50,0000%00:00 (00:00)
33 The Butterfly Sign Dec 13, 2016 $4.9921% (62%)200,000 .. 500,0000%00:00 (00:00)
34 Catmouth Island Dec 31, 2014 $0.99N/A (N/A)20,000 .. 50,0000%00:00 (00:00)
35 Maria the Witch Mar 1, 2016 $4.9919% (60%)0 .. 20,0000%00:00 (00:00)
36 Space Incident Sep 23, 2016 $3.9917% (58%)100,000 .. 200,0000%00:00 (00:00)
37 ENKI Jul 31, 2015 $4.9917% (58%/43%)20,000 .. 50,0000%00:00 (00:00)
38 Sideway New York Nov 15, 2011 $9.99N/A (N/A/71%)50,000 .. 100,0000%00:00 (00:00)
39 Little Jack's Adventures Dec 28, 2016 $0.99N/A (N/A)50,000 .. 100,0000.47%00:20 (00:06)
40 Rock Zombie Nov 20, 2014 $6.99N/A (N/A)0 .. 20,0000%00:00 (00:00)
41 Alchemist Dec 29, 2016 $2.9914% (54%)20,000 .. 50,0000%00:00 (00:00)
42 Not without my donuts Apr 28, 2015 $3.99N/A (N/A)20,000 .. 50,0000%00:00 (00:00)
43 Penumbra: Requiem N/A12% (51%/67%)0 .. 20,0000.46%00:01 (00:00)
44 Last Inua Dec 11, 2014 $7.9910% (49%)20,000 .. 50,0000%00:00 (00:00)
45 Shattered Haven Mar 18, 2013 $9.99N/A (N/A/59%)50,000 .. 100,0000%00:00 (00:00)
46 Lex Mortis Feb 9, 2015 $4.997% (42%)200,000 .. 500,0000%00:00 (00:00)
47 'n Verlore Verstand Apr 5, 2016 $14.997% (41%)20,000 .. 50,0000%00:00 (00:00)
48 Krampus Oct 18, 2016 $4.996% (40%)100,000 .. 200,0000.22%00:24 (00:08)
49 Bibou Apr 29, 2016 $0.795% (37%)200,000 .. 500,0000.14%00:03 (00:01)
50 Magdalena Feb 22, 2016 $2.994% (35%)200,000 .. 500,0000.14%00:03 (00:01)
51 Time Of Silence Dec 6, 2016 $0.994% (32%)100,000 .. 200,0000%00:00 (00:00)
52 Worst Case Z Apr 15, 2016 $12.99N/A (N/A)0 .. 20,0000%00:00 (00:00)
53 Tesla Breaks the World! Nov 26, 2014 $9.99N/A (N/A)0 .. 20,0000%00:00 (00:00)
54 Lone Leader Oct 28, 2016 $0.992% (20%)200,000 .. 500,0000%00:00 (00:00)
55 Ball of Light Dec 9, 2016 $3.992% (20%)200,000 .. 500,0000.12%320:04 (106:41)
56 The Spirit Underneath Jan 2, 2017 $0.991% (16%)200,000 .. 500,0000%00:00 (00:00)
57 Haywire on Fuel Station Zeta Sep 24, 2015 $3.99N/A (N/A)20,000 .. 50,0000%00:00 (00:00)
58 Chowderchu Jan 4, 2016 $2.99N/A (N/A)20,000 .. 50,0002.79%04:41 (03:19)
59 Pillar May 29, 2015 $7.99N/A (N/A)20,000 .. 50,0000%00:00 (00:00)
60 Incognito Mar 23, 2015 $7.99N/A (N/A)0 .. 20,0000%00:00 (00:00)
61 Yasai Ninja Jul 21, 2015 $1.99N/A (N/A)0 .. 20,0000%00:00 (00:00)
62 Replay - VHS is not dead Jul 9, 2015 $9.99N/A (N/A)0 .. 20,0000%00:00 (00:00)

Tags over time:

Access restricted.

This feature is only available to users with special access rights. Sorry.

If you want to proceed, you need to register or log in first and then back Steam Spy on Patreon. Look for Indie or Pro pledge.

Don't forget to use the same email as on Steam Spy!

Owners of this game also own:

Access restricted.

This feature is only available to users with special access rights. Sorry.

If you want to proceed, you need to register or log in first and then back Steam Spy on Patreon. Look for Indie or Pro pledge.

Don't forget to use the same email as on Steam Spy!

Playtime distribution:

Access restricted.

This feature is only available to users with special access rights. Sorry.

If you want to proceed, you need to register or log in first and then back Steam Spy on Patreon. Look for Indie or Pro pledge.

Don't forget to use the same email as on Steam Spy!

Playtime (2 weeks):

Access restricted.

This feature is only available to users with special access rights. Sorry.

If you want to proceed, you need to register or log in first and then back Steam Spy on Patreon. Look for Indie or Pro pledge.

Don't forget to use the same email as on Steam Spy!

User reviews:

Login required.

Please register or log in to see this information.